createdAt,value
2018-02-25T00:00:45.384Z,0
2018-02-25T00:01:54.482Z,0
2018-02-25T00:03:03.306Z,0
2018-02-25T00:04:12.129Z,0
2018-02-25T00:05:21.002Z,0
2018-02-25T00:06:29.825Z,0
2018-02-25T00:07:38.647Z,0
2018-02-25T00:08:48.021Z,0
2018-02-25T00:09:57.124Z,0
2018-02-25T00:11:06.222Z,0
2018-02-25T00:12:15.041Z,0
2018-02-25T00:13:23.866Z,0
2018-02-25T00:14:32.688Z,0
2018-02-25T00:15:41.512Z,0
2018-02-25T00:16:50.435Z,0
2018-02-25T00:17:59.256Z,0
2018-02-25T00:19:08.077Z,0
2018-02-25T00:20:16.899Z,0
2018-02-25T00:21:25.722Z,0
2018-02-25T00:22:34.694Z,0
2018-02-25T00:23:43.516Z,0
2018-02-25T00:24:52.630Z,0
2018-02-25T00:26:01.759Z,0
2018-02-25T00:27:10.577Z,0
2018-02-25T00:28:19.400Z,0
2018-02-25T00:29:28.221Z,0
2018-02-25T00:30:37.043Z,0
2018-02-25T00:31:45.872Z,0
2018-02-25T00:32:54.686Z,0
2018-02-25T00:34:03.660Z,0
2018-02-25T00:35:12.483Z,0
2018-02-25T00:36:21.306Z,0
2018-02-25T00:37:30.133Z,0
2018-02-25T00:38:39.233Z,0
2018-02-25T00:39:48.204Z,0
2018-02-25T00:40:57.025Z,0
2018-02-25T00:42:05.846Z,0
2018-02-25T00:43:14.671Z,0
2018-02-25T00:44:23.493Z,0
2018-02-25T00:45:32.852Z,0
2018-02-25T00:46:41.672Z,0
2018-02-25T00:47:50.497Z,0
2018-02-25T00:48:59.319Z,0
2018-02-25T00:50:08.140Z,0
2018-02-25T00:51:17.068Z,0
2018-02-25T00:52:25.886Z,0
2018-02-25T00:53:34.707Z,0
2018-02-25T00:54:43.528Z,0
2018-02-25T00:55:52.349Z,0
2018-02-25T00:57:01.270Z,0
2018-02-25T00:58:10.096Z,0
2018-02-25T00:59:18.914Z,0
2018-02-25T01:00:28.011Z,0
2018-02-25T01:01:36.832Z,0
2018-02-25T01:02:45.653Z,0
2018-02-25T01:03:54.477Z,0
2018-02-25T01:05:03.299Z,0
2018-02-25T01:06:12.120Z,0
2018-02-25T01:07:20.943Z,0
2018-02-25T01:08:29.916Z,0
2018-02-25T01:09:38.737Z,0
2018-02-25T01:10:47.562Z,0
2018-02-25T01:11:56.660Z,0
2018-02-25T01:13:05.482Z,0
2018-02-25T01:14:14.562Z,0
2018-02-25T01:15:23.385Z,0
2018-02-25T01:16:32.207Z,0
2018-02-25T01:17:41.028Z,0
2018-02-25T01:18:49.850Z,0
2018-02-25T01:19:58.824Z,0
2018-02-25T01:21:07.644Z,0
2018-02-25T01:22:16.465Z,0
2018-02-25T01:23:25.286Z,0
2018-02-25T01:24:34.385Z,0
2018-02-25T01:25:43.634Z,0
2018-02-25T01:26:52.456Z,0
2018-02-25T01:28:01.277Z,0
2018-02-25T01:29:10.107Z,0
2018-02-25T01:30:18.922Z,0
2018-02-25T01:31:27.841Z,0
2018-02-25T01:32:36.663Z,0
2018-02-25T01:33:45.762Z,0
2018-02-25T01:34:54.585Z,0
2018-02-25T01:36:03.407Z,0
2018-02-25T01:37:12.379Z,0
2018-02-25T01:38:21.474Z,0
2018-02-25T01:39:30.577Z,0
2018-02-25T01:40:39.397Z,0
2018-02-25T01:41:48.218Z,0
2018-02-25T01:42:57.046Z,0
2018-02-25T01:44:05.861Z,0
2018-02-25T01:45:14.681Z,0
2018-02-25T01:46:23.513Z,0
2018-02-25T01:47:32.607Z,0
2018-02-25T01:48:41.432Z,0
2018-02-25T01:49:50.247Z,0
2018-02-25T01:50:59.069Z,0
2018-02-25T01:52:07.891Z,0
2018-02-25T01:53:16.712Z,0
2018-02-25T01:54:25.859Z,0
2018-02-25T01:55:34.680Z,0
2018-02-25T01:56:43.500Z,0
2018-02-25T01:57:52.321Z,0
2018-02-25T01:59:01.143Z,0
2018-02-25T02:00:09.965Z,0
2018-02-25T02:01:18.787Z,0
2018-02-25T02:02:27.891Z,0
2018-02-25T02:03:36.711Z,0
2018-02-25T02:04:45.532Z,0
2018-02-25T02:05:54.652Z,0
2018-02-25T02:07:03.475Z,0
2018-02-25T02:08:12.294Z,0
2018-02-25T02:09:21.136Z,0
2018-02-25T02:10:29.939Z,0
2018-02-25T02:11:38.818Z,0
2018-02-25T02:12:47.632Z,0
2018-02-25T02:13:56.454Z,0
2018-02-25T02:15:05.274Z,0
2018-02-25T02:16:14.095Z,0
2018-02-25T02:17:23.219Z,0
2018-02-25T02:18:32.017Z,0
2018-02-25T02:19:40.834Z,0
2018-02-25T02:20:49.660Z,0
2018-02-25T02:21:58.754Z,0
2018-02-25T02:23:07.724Z,0
2018-02-25T02:24:16.545Z,0
2018-02-25T02:25:25.369Z,0
2018-02-25T02:26:34.190Z,0
2018-02-25T02:27:43.011Z,0
2018-02-25T02:28:51.831Z,0
2018-02-25T02:30:00.656Z,0
2018-02-25T02:31:09.753Z,0
2018-02-25T02:32:18.576Z,0
2018-02-25T02:33:27.674Z,0
2018-02-25T02:34:36.886Z,0
2018-02-25T02:35:45.708Z,0
2018-02-25T02:36:54.583Z,0
2018-02-25T02:38:03.352Z,0
2018-02-25T02:39:12.173Z,0
2018-02-25T02:40:20.996Z,0
2018-02-25T02:41:29.832Z,0
2018-02-25T02:42:38.918Z,0
2018-02-25T02:43:47.741Z,0
2018-02-25T02:44:56.561Z,0
2018-02-25T02:46:05.381Z,0
2018-02-25T02:47:14.201Z,0
2018-02-25T02:48:23.022Z,0
2018-02-25T02:49:31.841Z,0
2018-02-25T02:50:40.942Z,0
2018-02-25T02:51:49.763Z,0
2018-02-25T02:52:58.876Z,0
2018-02-25T02:54:07.692Z,0
2018-02-25T02:55:16.516Z,0
2018-02-25T02:56:25.336Z,0
2018-02-25T02:57:34.256Z,0
2018-02-25T02:58:43.075Z,0
2018-02-25T02:59:51.896Z,0
2018-02-25T03:01:00.993Z,0
2018-02-25T03:02:09.812Z,0
2018-02-25T03:03:18.636Z,0
2018-02-25T03:04:27.459Z,0
2018-02-25T03:05:36.281Z,0
2018-02-25T03:06:45.105Z,0
2018-02-25T03:07:53.925Z,0
2018-02-25T03:09:02.897Z,0
2018-02-25T03:10:11.718Z,0
2018-02-25T03:11:20.540Z,0
2018-02-25T03:12:29.360Z,0
2018-02-25T03:13:38.458Z,0
2018-02-25T03:14:47.434Z,0
2018-02-25T03:15:56.251Z,0
2018-02-25T03:17:05.348Z,0
2018-02-25T03:18:14.169Z,0
2018-02-25T03:19:23.263Z,0
2018-02-25T03:20:32.183Z,0
2018-02-25T03:21:41.003Z,0
2018-02-25T03:22:49.823Z,0
2018-02-25T03:23:58.645Z,0
2018-02-25T03:25:07.465Z,0
2018-02-25T03:26:16.586Z,0
2018-02-25T03:27:25.405Z,0
2018-02-25T03:28:34.226Z,0
2018-02-25T03:29:43.049Z,0
2018-02-25T03:30:51.870Z,0
2018-02-25T03:32:00.841Z,0
2018-02-25T03:33:09.663Z,0
2018-02-25T03:34:18.484Z,0
2018-02-25T03:35:27.304Z,0
2018-02-25T03:36:36.398Z,0
2018-02-25T03:37:45.220Z,0
2018-02-25T03:38:54.043Z,0
2018-02-25T03:40:02.864Z,0
2018-02-25T03:41:11.782Z,0
2018-02-25T03:42:20.602Z,0
2018-02-25T03:43:29.522Z,0
2018-02-25T03:44:38.623Z,0
2018-02-25T03:45:47.445Z,0
2018-02-25T03:46:56.267Z,0
2018-02-25T03:48:05.091Z,0
2018-02-25T03:49:14.065Z,0
2018-02-25T03:50:22.882Z,0
2018-02-25T03:51:31.704Z,0
2018-02-25T03:52:40.527Z,0
2018-02-25T03:53:49.348Z,0
2018-02-25T03:54:58.169Z,0
2018-02-25T03:56:07.550Z,0
2018-02-25T03:57:16.373Z,0
2018-02-25T03:58:25.195Z,0
2018-02-25T03:59:34.016Z,0
2018-02-25T04:00:43.262Z,0
2018-02-25T04:01:52.080Z,0
2018-02-25T04:03:00.901Z,0
2018-02-25T04:04:09.722Z,0
2018-02-25T04:05:18.542Z,0
2018-02-25T04:06:27.412Z,0
2018-02-25T04:07:36.509Z,0
2018-02-25T04:08:45.332Z,0
2018-02-25T04:09:54.152Z,0
2018-02-25T04:11:02.974Z,0
2018-02-25T04:12:11.795Z,0
2018-02-25T04:13:20.614Z,0
2018-02-25T04:14:29.438Z,0
2018-02-25T04:15:38.258Z,0
2018-02-25T04:16:47.078Z,0
2018-02-25T04:17:55.899Z,0
2018-02-25T04:19:04.720Z,0
2018-02-25T04:20:13.540Z,0
2018-02-25T04:21:22.360Z,0
2018-02-25T04:22:31.185Z,0
2018-02-25T04:23:40.283Z,0
2018-02-25T04:24:49.103Z,0
2018-02-25T04:25:57.925Z,0
2018-02-25T04:27:06.743Z,0
2018-02-25T04:28:15.839Z,0
2018-02-25T04:29:24.709Z,0
2018-02-25T04:30:33.532Z,0
2018-02-25T04:31:42.351Z,0
2018-02-25T04:32:51.172Z,0
2018-02-25T04:33:59.997Z,0
2018-02-25T04:35:08.962Z,0
2018-02-25T04:36:17.781Z,0
2018-02-25T04:37:26.603Z,0
2018-02-25T04:38:35.423Z,0
2018-02-25T04:39:44.241Z,0
2018-02-25T04:40:53.061Z,0
2018-02-25T04:42:01.887Z,0
2018-02-25T04:43:10.703Z,0
2018-02-25T04:44:19.523Z,0
2018-02-25T04:45:28.344Z,0
2018-02-25T04:46:37.219Z,0
2018-02-25T04:47:46.041Z,0
2018-02-25T04:48:54.862Z,0
2018-02-25T04:50:03.682Z,0
2018-02-25T04:51:12.504Z,0
2018-02-25T04:52:21.473Z,0
2018-02-25T04:53:30.293Z,0
2018-02-25T04:54:39.117Z,0
2018-02-25T04:55:47.934Z,0
2018-02-25T04:56:56.754Z,0
2018-02-25T04:58:05.724Z,0
2018-02-25T04:59:14.543Z,0
2018-02-25T05:00:23.365Z,0
2018-02-25T05:01:32.185Z,0
2018-02-25T05:02:41.007Z,0
2018-02-25T05:03:50.401Z,0
2018-02-25T05:04:59.499Z,0
2018-02-25T05:06:08.321Z,0
2018-02-25T05:07:17.140Z,0
2018-02-25T05:08:25.959Z,0
2018-02-25T05:09:34.780Z,0
2018-02-25T05:10:43.600Z,0
2018-02-25T05:11:52.421Z,0
2018-02-25T05:13:01.242Z,0
2018-02-25T05:14:10.062Z,0
2018-02-25T05:15:18.984Z,0
2018-02-25T05:16:27.805Z,0
2018-02-25T05:17:36.899Z,0
2018-02-25T05:18:45.720Z,0
2018-02-25T05:19:54.540Z,0
2018-02-25T05:21:03.361Z,0
2018-02-25T05:22:12.179Z,0
2018-02-25T05:23:21.000Z,0
2018-02-25T05:24:29.825Z,0
2018-02-25T05:25:38.645Z,0
2018-02-25T05:26:47.613Z,0
2018-02-25T05:27:56.432Z,0
2018-02-25T05:29:05.249Z,0
2018-02-25T05:30:14.076Z,0
2018-02-25T05:31:23.168Z,0
2018-02-25T05:32:32.290Z,0
2018-02-25T05:33:41.108Z,0
2018-02-25T05:34:49.930Z,0
2018-02-25T05:35:58.752Z,0
2018-02-25T05:37:07.571Z,0
2018-02-25T05:38:16.441Z,0
2018-02-25T05:39:25.281Z,0
2018-02-25T05:40:34.084Z,0
2018-02-25T05:41:42.906Z,0
2018-02-25T05:42:51.726Z,0
2018-02-25T05:44:00.975Z,0
2018-02-25T05:45:09.794Z,0
2018-02-25T05:46:18.623Z,0
2018-02-25T05:47:27.434Z,0
2018-02-25T05:48:36.253Z,0
2018-02-25T05:49:45.075Z,0
2018-02-25T05:50:53.901Z,0
2018-02-25T05:52:02.714Z,0
2018-02-25T05:53:11.532Z,0
2018-02-25T05:54:20.356Z,4
2018-02-25T05:55:29.323Z,0
2018-02-25T05:56:38.144Z,0
2018-02-25T05:57:46.963Z,4
2018-02-25T05:58:55.783Z,0
2018-02-25T06:00:04.600Z,4
2018-02-25T06:01:13.670Z,4
2018-02-25T06:02:22.767Z,8
2018-02-25T06:03:31.866Z,8
2018-02-25T06:04:40.965Z,8
2018-02-25T06:05:49.783Z,12
2018-02-25T06:06:58.601Z,12
2018-02-25T06:08:07.419Z,12
2018-02-25T06:09:16.239Z,20
2018-02-25T06:10:25.059Z,20
2018-02-25T06:11:33.883Z,24
2018-02-25T06:12:42.702Z,28
2018-02-25T06:13:51.523Z,32
2018-02-25T06:15:00.343Z,36
2018-02-25T06:16:09.161Z,44
2018-02-25T06:17:17.981Z,48
2018-02-25T06:18:26.849Z,56
2018-02-25T06:19:35.669Z,64
2018-02-25T06:20:44.490Z,72
2018-02-25T06:21:53.588Z,80
2018-02-25T06:23:02.418Z,88
2018-02-25T06:24:12.356Z,100
2018-02-25T06:25:21.455Z,108
2018-02-25T06:26:30.282Z,116
2018-02-25T06:27:39.105Z,128
2018-02-25T06:28:47.922Z,140
2018-02-25T06:29:56.890Z,152
2018-02-25T06:31:05.710Z,164
2018-02-25T06:32:14.531Z,172
2018-02-25T06:33:23.351Z,184
2018-02-25T06:34:32.170Z,196
2018-02-25T06:35:41.145Z,208
2018-02-25T06:36:49.993Z,224
2018-02-25T06:37:58.779Z,232
2018-02-25T06:39:07.876Z,244
2018-02-25T06:40:16.693Z,260
2018-02-25T06:41:25.567Z,272
2018-02-25T06:42:34.392Z,288
2018-02-25T06:43:43.213Z,304
2018-02-25T06:44:52.308Z,316
2018-02-25T06:46:01.130Z,332
2018-02-25T06:47:10.099Z,348
2018-02-25T06:48:18.917Z,364
2018-02-25T06:49:27.740Z,376
2018-02-25T06:50:36.833Z,396
2018-02-25T06:51:45.652Z,416
2018-02-25T06:52:54.756Z,440
2018-02-25T06:54:03.582Z,464
2018-02-25T06:55:12.394Z,480
2018-02-25T06:56:21.219Z,492
2018-02-25T06:57:30.037Z,500
2018-02-25T06:58:38.960Z,516
2018-02-25T06:59:48.070Z,532
2018-02-25T07:00:56.894Z,544
2018-02-25T07:02:05.712Z,556
2018-02-25T07:03:14.532Z,560
2018-02-25T07:04:23.730Z,572
2018-02-25T07:05:32.549Z,580
2018-02-25T07:06:41.371Z,592
2018-02-25T07:07:50.197Z,604
2018-02-25T07:08:59.014Z,620
2018-02-25T07:10:07.835Z,652
2018-02-25T07:11:16.657Z,688
2018-02-25T07:12:25.476Z,724
2018-02-25T07:13:34.299Z,756
2018-02-25T07:14:43.123Z,780
2018-02-25T07:15:52.139Z,796
2018-02-25T07:17:00.960Z,808
2018-02-25T07:18:09.779Z,820
2018-02-25T07:19:18.602Z,844
2018-02-25T07:20:27.422Z,876
2018-02-25T07:21:36.249Z,888
2018-02-25T07:22:45.347Z,896
2018-02-25T07:23:54.167Z,896
2018-02-25T07:25:02.990Z,892
2018-02-25T07:26:11.810Z,896
2018-02-25T07:27:20.909Z,912
2018-02-25T07:28:29.727Z,936
2018-02-25T07:29:38.825Z,948
2018-02-25T07:30:47.919Z,944
2018-02-25T07:31:56.742Z,936
2018-02-25T07:33:05.850Z,924
2018-02-25T07:34:14.660Z,912
2018-02-25T07:35:23.757Z,900
2018-02-25T07:36:32.582Z,892
2018-02-25T07:37:41.404Z,888
2018-02-25T07:38:50.228Z,888
2018-02-25T07:39:59.325Z,888
2018-02-25T07:41:08.146Z,888
2018-02-25T07:42:17.009Z,888
2018-02-25T07:43:25.792Z,892
2018-02-25T07:44:35.051Z,888
2018-02-25T07:45:43.865Z,884
2018-02-25T07:46:52.685Z,892
2018-02-25T07:48:01.510Z,888
2018-02-25T07:49:10.602Z,888
2018-02-25T07:50:19.472Z,900
2018-02-25T07:51:28.356Z,912
2018-02-25T07:52:37.117Z,920
2018-02-25T07:53:45.939Z,968
2018-02-25T07:54:54.761Z,972
2018-02-25T07:56:03.586Z,972
2018-02-25T07:57:12.408Z,980
2018-02-25T07:58:21.231Z,988
2018-02-25T07:59:30.053Z,992
2018-02-25T08:00:38.876Z,1016
2018-02-25T08:01:47.998Z,1040
2018-02-25T08:02:56.817Z,1056
2018-02-25T08:04:05.926Z,1076
2018-02-25T08:05:14.747Z,1084
2018-02-25T08:06:23.567Z,1096
2018-02-25T08:07:32.788Z,1116
2018-02-25T08:08:41.608Z,1132
2018-02-25T08:09:50.430Z,1144
2018-02-25T08:10:59.535Z,1132
2018-02-25T08:12:08.359Z,1112
2018-02-25T08:13:17.180Z,1092
2018-02-25T08:14:26.005Z,1080
2018-02-25T08:15:34.827Z,1060
2018-02-25T08:16:43.650Z,1040
2018-02-25T08:17:52.472Z,1060
2018-02-25T08:19:01.294Z,1072
2018-02-25T08:20:10.118Z,1080
2018-02-25T08:21:19.213Z,1080
2018-02-25T08:22:28.035Z,1064
2018-02-25T08:23:36.853Z,1068
2018-02-25T08:24:45.774Z,1080
2018-02-25T08:25:54.873Z,1072
2018-02-25T08:27:03.694Z,1092
2018-02-25T08:28:12.517Z,1136
2018-02-25T08:29:21.622Z,1132
2018-02-25T08:30:30.542Z,1152
2018-02-25T08:31:39.366Z,1128
2018-02-25T08:32:48.477Z,1148
2018-02-25T08:33:57.300Z,1160
2018-02-25T08:35:06.682Z,1172
2018-02-25T08:36:15.505Z,1172
2018-02-25T08:37:24.332Z,1172
2018-02-25T08:38:33.148Z,1164
2018-02-25T08:39:41.973Z,1176
2018-02-25T08:40:50.795Z,1172
2018-02-25T08:41:59.775Z,1168
2018-02-25T08:43:08.593Z,1176
2018-02-25T08:44:17.415Z,1200
2018-02-25T08:45:26.240Z,1228
2018-02-25T08:46:35.382Z,1248
2018-02-25T08:47:44.355Z,1284
2018-02-25T08:48:53.179Z,1340
2018-02-25T08:50:02.001Z,1380
2018-02-25T08:51:10.823Z,1444
2018-02-25T08:52:19.648Z,1504
2018-02-25T08:53:28.470Z,1552
2018-02-25T08:54:37.297Z,1612
2018-02-25T08:55:46.118Z,1652
2018-02-25T08:56:54.937Z,1660
2018-02-25T08:58:03.761Z,1648
2018-02-25T08:59:12.684Z,1684
2018-02-25T09:00:21.517Z,1760
2018-02-25T09:01:30.340Z,1824
2018-02-25T09:02:39.168Z,1788
2018-02-25T09:03:47.991Z,1800
2018-02-25T09:04:57.112Z,1848
2018-02-25T09:06:05.936Z,1788
2018-02-25T09:07:14.760Z,1732
2018-02-25T09:08:23.585Z,1724
2018-02-25T09:09:32.408Z,1764
2018-02-25T09:10:41.389Z,1832
2018-02-25T09:11:50.208Z,1908
2018-02-25T09:12:59.038Z,1948
2018-02-25T09:14:07.874Z,1936
2018-02-25T09:15:16.697Z,1880
2018-02-25T09:16:25.822Z,1812
2018-02-25T09:17:34.920Z,1772
2018-02-25T09:18:43.745Z,1764
2018-02-25T09:19:52.569Z,1788
2018-02-25T09:21:01.394Z,1848
2018-02-25T09:22:10.215Z,1924
2018-02-25T09:23:19.041Z,2004
2018-02-25T09:24:27.864Z,2076
2018-02-25T09:25:36.690Z,2136
2018-02-25T09:26:45.508Z,2164
2018-02-25T09:27:54.734Z,2160
2018-02-25T09:29:03.838Z,2164
2018-02-25T09:30:12.668Z,2180
2018-02-25T09:31:21.485Z,2232
2018-02-25T09:32:30.310Z,2328
2018-02-25T09:33:39.140Z,2400
2018-02-25T09:34:47.960Z,2408
2018-02-25T09:35:56.812Z,2400
2018-02-25T09:37:05.614Z,2408
2018-02-25T09:38:14.446Z,2404
2018-02-25T09:39:23.269Z,2388
2018-02-25T09:40:32.159Z,2356
2018-02-25T09:41:40.916Z,2296
2018-02-25T09:42:49.791Z,2236
2018-02-25T09:43:58.616Z,2176
2018-02-25T09:45:07.589Z,2144
2018-02-25T09:46:16.468Z,2124
2018-02-25T09:47:25.243Z,2144
2018-02-25T09:48:34.067Z,2188
2018-02-25T09:49:42.902Z,2228
2018-02-25T09:50:51.886Z,2272
2018-02-25T09:52:00.722Z,2344
2018-02-25T09:53:09.551Z,2448
2018-02-25T09:54:18.393Z,2552
2018-02-25T09:55:27.202Z,2628
2018-02-25T09:56:36.130Z,2672
2018-02-25T09:57:44.956Z,2680
2018-02-25T09:58:53.782Z,2700
2018-02-25T10:00:02.607Z,2720
2018-02-25T10:01:11.713Z,2744
2018-02-25T10:02:20.541Z,2776
2018-02-25T10:03:29.366Z,2796
2018-02-25T10:04:38.193Z,2768
2018-02-25T10:05:47.018Z,2680
2018-02-25T10:06:55.842Z,2568
2018-02-25T10:08:05.068Z,2476
2018-02-25T10:09:13.893Z,2428
2018-02-25T10:10:22.720Z,2444
2018-02-25T10:11:31.545Z,2508
2018-02-25T10:12:40.369Z,2580
2018-02-25T10:13:49.445Z,2656
2018-02-25T10:14:58.272Z,2696
2018-02-25T10:16:07.095Z,2648
2018-02-25T10:17:16.212Z,2528
2018-02-25T10:18:25.313Z,2396
2018-02-25T10:19:34.485Z,2292
2018-02-25T10:20:43.266Z,2224
2018-02-25T10:21:52.092Z,2208
2018-02-25T10:23:01.193Z,2212
2018-02-25T10:24:10.293Z,2256
2018-02-25T10:25:19.272Z,2336
2018-02-25T10:26:28.101Z,2392
2018-02-25T10:27:38.096Z,2440
2018-02-25T10:28:46.925Z,2440
2018-02-25T10:29:55.746Z,2428
2018-02-25T10:31:04.725Z,2372
2018-02-25T10:32:13.549Z,2352
2018-02-25T10:33:22.376Z,2352
2018-02-25T10:34:31.201Z,2428
2018-02-25T10:35:40.027Z,2536
2018-02-25T10:36:48.854Z,2580
2018-02-25T10:37:57.677Z,2660
2018-02-25T10:39:06.781Z,2700
2018-02-25T10:40:15.604Z,2708
2018-02-25T10:41:24.433Z,2708
2018-02-25T10:42:33.558Z,2728
2018-02-25T10:43:42.389Z,2784
2018-02-25T10:44:51.212Z,2876
2018-02-25T10:46:00.039Z,2976
2018-02-25T10:47:08.862Z,3084
2018-02-25T10:48:17.691Z,3128
2018-02-25T10:49:26.519Z,3136
2018-02-25T10:50:35.343Z,3176
2018-02-25T10:51:44.171Z,3296
2018-02-25T10:52:52.995Z,3388
2018-02-25T10:54:01.917Z,3528
2018-02-25T10:55:11.007Z,3692
2018-02-25T10:56:20.112Z,3828
2018-02-25T10:57:28.939Z,3908
2018-02-25T10:58:38.047Z,3896
2018-02-25T10:59:46.873Z,3860
2018-02-25T11:00:55.700Z,3788
2018-02-25T11:02:04.526Z,3652
2018-02-25T11:03:13.636Z,3672
2018-02-25T11:04:22.468Z,3656
2018-02-25T11:05:31.304Z,3688
2018-02-25T11:06:40.121Z,3504
2018-02-25T11:07:48.949Z,3388
2018-02-25T11:08:57.777Z,3340
2018-02-25T11:10:06.653Z,3376
2018-02-25T11:11:15.531Z,3380
2018-02-25T11:12:24.358Z,3320
2018-02-25T11:13:33.182Z,3212
2018-02-25T11:14:42.014Z,3200
2018-02-25T11:15:50.838Z,3316
2018-02-25T11:16:59.966Z,3420
2018-02-25T11:18:08.791Z,3412
2018-02-25T11:19:17.617Z,3636
2018-02-25T11:20:26.447Z,3604
2018-02-25T11:21:35.273Z,3500
2018-02-25T11:22:44.202Z,3560
2018-02-25T11:23:53.031Z,3624
2018-02-25T11:25:02.131Z,3552
2018-02-25T11:26:10.959Z,3544
2018-02-25T11:27:20.062Z,3524
2018-02-25T11:28:28.939Z,3496
2018-02-25T11:29:37.794Z,3428
2018-02-25T11:30:46.594Z,3660
2018-02-25T11:31:55.420Z,3744
2018-02-25T11:33:04.249Z,3572
2018-02-25T11:34:13.075Z,4296
2018-02-25T11:35:21.902Z,3800
2018-02-25T11:36:30.730Z,3536
2018-02-25T11:37:39.564Z,3564
2018-02-25T11:38:48.386Z,3660
2018-02-25T11:39:57.213Z,4128
2018-02-25T11:41:06.041Z,4156
2018-02-25T11:42:14.870Z,4092
2018-02-25T11:43:23.698Z,4104
2018-02-25T11:44:32.525Z,4688
2018-02-25T11:45:41.456Z,5048
2018-02-25T11:46:50.290Z,4980
2018-02-25T11:47:59.129Z,4952
2018-02-25T11:49:07.969Z,4920
2018-02-25T11:50:16.796Z,4876
2018-02-25T11:51:25.672Z,4792
2018-02-25T11:52:34.518Z,4820
2018-02-25T11:53:43.361Z,5116
2018-02-25T11:54:52.196Z,5668
2018-02-25T11:56:01.033Z,6528
2018-02-25T11:57:09.871Z,6868
2018-02-25T11:58:18.710Z,6432
2018-02-25T11:59:27.548Z,5732
2018-02-25T12:00:36.765Z,5996
2018-02-25T12:01:45.603Z,5916
2018-02-25T12:02:54.453Z,5852
2018-02-25T12:04:03.293Z,5660
2018-02-25T12:05:12.140Z,5760
2018-02-25T12:06:20.977Z,6020
2018-02-25T12:07:29.807Z,5708
2018-02-25T12:08:38.632Z,6908
2018-02-25T12:09:47.461Z,7972
2018-02-25T12:10:56.290Z,8408
2018-02-25T12:12:05.117Z,8636
2018-02-25T12:13:14.222Z,6396
2018-02-25T12:14:23.052Z,8240
2018-02-25T12:15:31.884Z,9360
2018-02-25T12:16:40.713Z,10132
2018-02-25T12:17:49.548Z,9784
2018-02-25T12:18:58.378Z,8520
2018-02-25T12:20:07.479Z,7608
2018-02-25T12:21:16.584Z,6300
2018-02-25T12:22:25.720Z,6196
2018-02-25T12:23:34.552Z,5276
2018-02-25T12:24:43.384Z,5268
2018-02-25T12:25:52.214Z,5516
2018-02-25T12:27:01.049Z,5872
2018-02-25T12:28:10.254Z,6340
2018-02-25T12:29:19.081Z,8344
2018-02-25T12:30:27.912Z,10004
2018-02-25T12:31:36.743Z,6708
2018-02-25T12:32:45.572Z,9656
2018-02-25T12:33:54.803Z,8892
2018-02-25T12:35:03.920Z,7876
2018-02-25T12:36:12.750Z,7832
2018-02-25T12:37:21.852Z,7228
2018-02-25T12:38:30.964Z,7336
2018-02-25T12:39:39.892Z,7512
2018-02-25T12:40:48.725Z,8124
2018-02-25T12:41:57.557Z,9240
2018-02-25T12:43:06.384Z,10088
2018-02-25T12:44:15.218Z,9480
2018-02-25T12:45:24.199Z,9144
2018-02-25T12:46:33.029Z,8468
2018-02-25T12:47:42.181Z,7692
2018-02-25T12:48:50.967Z,6964
2018-02-25T12:49:59.798Z,6868
2018-02-25T12:51:08.781Z,7288
2018-02-25T12:52:17.888Z,8024
2018-02-25T12:53:26.720Z,8128
2018-02-25T12:54:35.553Z,7852
2018-02-25T12:55:44.385Z,7840
2018-02-25T12:56:53.417Z,8216
2018-02-25T12:58:02.247Z,8724
2018-02-25T12:59:11.076Z,9128
2018-02-25T13:00:19.908Z,9724
2018-02-25T13:01:28.738Z,10288
2018-02-25T13:02:37.867Z,9252
2018-02-25T13:03:46.699Z,8384
2018-02-25T13:04:55.529Z,7680
2018-02-25T13:06:04.361Z,6212
2018-02-25T13:07:13.195Z,5504
2018-02-25T13:08:22.173Z,5080
2018-02-25T13:09:31.002Z,4856
2018-02-25T13:10:40.107Z,4860
2018-02-25T13:11:48.938Z,4824
2018-02-25T13:12:57.775Z,4760
2018-02-25T13:14:06.651Z,4720
2018-02-25T13:15:15.478Z,4764
2018-02-25T13:16:24.368Z,4708
2018-02-25T13:17:33.142Z,4544
2018-02-25T13:18:41.972Z,4480
2018-02-25T13:19:51.181Z,4276
2018-02-25T13:21:00.008Z,4056
2018-02-25T13:22:08.839Z,3744
2018-02-25T13:23:17.666Z,3520
2018-02-25T13:24:26.516Z,3440
2018-02-25T13:25:35.378Z,3488
2018-02-25T13:26:44.206Z,3520
2018-02-25T13:27:53.038Z,3636
2018-02-25T13:29:01.866Z,3396
2018-02-25T13:30:10.696Z,3468
2018-02-25T13:31:19.898Z,3452
2018-02-25T13:32:28.736Z,3372
2018-02-25T13:33:37.569Z,3256
2018-02-25T13:34:46.399Z,3216
2018-02-25T13:35:55.227Z,3136
2018-02-25T13:37:04.055Z,3072
2018-02-25T13:38:12.885Z,2920
2018-02-25T13:39:21.714Z,2824
2018-02-25T13:40:30.542Z,3040
2018-02-25T13:41:39.647Z,2916
2018-02-25T13:42:48.806Z,2836
2018-02-25T13:43:57.635Z,2904
2018-02-25T13:45:06.470Z,3284
2018-02-25T13:46:15.368Z,3724
2018-02-25T13:47:24.278Z,3992
2018-02-25T13:48:33.185Z,4436
2018-02-25T13:49:42.013Z,4900
2018-02-25T13:50:50.840Z,5436
2018-02-25T13:51:59.669Z,5984
2018-02-25T13:53:08.785Z,6300
2018-02-25T13:54:17.765Z,6372
2018-02-25T13:55:26.870Z,6224
2018-02-25T13:56:35.699Z,5972
2018-02-25T13:57:44.527Z,5208
2018-02-25T13:58:53.356Z,4240
2018-02-25T14:00:02.185Z,4156
2018-02-25T14:01:11.013Z,4352
2018-02-25T14:02:19.844Z,3856
2018-02-25T14:03:28.943Z,4140
2018-02-25T14:04:37.773Z,4284
2018-02-25T14:05:46.597Z,4084
2018-02-25T14:06:55.425Z,3820
2018-02-25T14:08:04.259Z,3588
2018-02-25T14:09:13.083Z,3400
2018-02-25T14:10:21.918Z,3188
2018-02-25T14:11:30.844Z,3328
2018-02-25T14:12:39.674Z,3256
2018-02-25T14:13:48.500Z,2852
2018-02-25T14:14:57.328Z,3016
2018-02-25T14:16:06.157Z,3636
2018-02-25T14:17:14.985Z,3688
2018-02-25T14:18:23.811Z,3744
2018-02-25T14:19:32.639Z,3800
2018-02-25T14:20:41.742Z,3628
2018-02-25T14:21:50.568Z,3348
2018-02-25T14:22:59.395Z,3320
2018-02-25T14:24:08.223Z,3020
2018-02-25T14:25:17.102Z,2776
2018-02-25T14:26:25.951Z,2888
2018-02-25T14:27:34.780Z,2916
2018-02-25T14:28:43.758Z,2916
2018-02-25T14:29:52.598Z,2528
2018-02-25T14:31:01.424Z,2128
2018-02-25T14:32:10.276Z,2360
2018-02-25T14:33:19.102Z,2864
2018-02-25T14:34:27.930Z,3192
2018-02-25T14:35:36.757Z,3276
2018-02-25T14:36:46.279Z,3300
2018-02-25T14:37:55.105Z,3284
2018-02-25T14:39:03.938Z,3192
2018-02-25T14:40:12.874Z,3180
2018-02-25T14:41:21.702Z,3024
2018-02-25T14:42:30.812Z,2772
2018-02-25T14:43:39.641Z,2896
2018-02-25T14:44:48.468Z,2980
2018-02-25T14:45:57.504Z,2976
2018-02-25T14:47:06.387Z,2864
2018-02-25T14:48:15.213Z,2684
2018-02-25T14:49:24.319Z,2300
2018-02-25T14:50:33.156Z,2244
2018-02-25T14:51:42.309Z,2392
2018-02-25T14:52:51.143Z,2460
2018-02-25T14:53:59.974Z,2464
2018-02-25T14:55:08.810Z,2452
2018-02-25T14:56:17.927Z,2496
2018-02-25T14:57:26.908Z,2468
2018-02-25T14:58:35.734Z,2376
2018-02-25T14:59:44.564Z,2320
2018-02-25T15:00:53.392Z,2332
2018-02-25T15:02:02.219Z,2268
2018-02-25T15:03:11.147Z,2124
2018-02-25T15:04:19.976Z,1920
2018-02-25T15:05:28.803Z,1676
2018-02-25T15:06:37.629Z,1468
2018-02-25T15:07:46.731Z,1208
2018-02-25T15:08:55.658Z,1024
2018-02-25T15:10:04.771Z,828
2018-02-25T15:11:13.599Z,808
2018-02-25T15:12:22.427Z,828
2018-02-25T15:13:31.254Z,568
2018-02-25T15:14:40.081Z,552
2018-02-25T15:15:48.908Z,624
2018-02-25T15:16:57.799Z,672
2018-02-25T15:18:06.626Z,660
2018-02-25T15:19:15.451Z,700
2018-02-25T15:20:24.378Z,740
2018-02-25T15:21:33.206Z,800
2018-02-25T15:22:42.035Z,856
2018-02-25T15:23:50.862Z,868
2018-02-25T15:24:59.689Z,892
2018-02-25T15:26:08.547Z,960
2018-02-25T15:27:17.376Z,1004
2018-02-25T15:28:26.202Z,1020
2018-02-25T15:29:35.029Z,1044
2018-02-25T15:30:43.860Z,1056
2018-02-25T15:31:52.730Z,1036
2018-02-25T15:33:01.563Z,1004
2018-02-25T15:34:10.673Z,988
2018-02-25T15:35:19.500Z,948
2018-02-25T15:36:28.327Z,940
2018-02-25T15:37:37.426Z,968
2018-02-25T15:38:46.252Z,972
2018-02-25T15:39:55.352Z,988
2018-02-25T15:41:04.456Z,996
2018-02-25T15:42:13.284Z,996
2018-02-25T15:43:22.380Z,1004
2018-02-25T15:44:31.206Z,988
2018-02-25T15:45:40.039Z,988
2018-02-25T15:46:49.159Z,1044
2018-02-25T15:47:57.987Z,1064
2018-02-25T15:49:07.095Z,912
2018-02-25T15:50:15.933Z,836
2018-02-25T15:51:24.767Z,908
2018-02-25T15:52:33.599Z,776
2018-02-25T15:53:42.434Z,788
2018-02-25T15:54:51.270Z,736
2018-02-25T15:56:00.110Z,704
2018-02-25T15:57:08.949Z,632
2018-02-25T15:58:17.792Z,672
2018-02-25T15:59:26.632Z,624